Atbasar, Kazakhstan
Current Conditions -  °F | °C
As of 5:30 PM on Thursday 29 Jan 2015 (Local Time) from UACK Reporting Station
Clear Clear  
Wind Chill:   Ceiling: Unl
Heat Index: 10°   Visibility: 6mi
Dew Point: -4°   Wind: 7mph
Humidity: 52%   Direction: 220°SW
Pressure: 30.42"   Gusts: NA
Location:  51.82°N, 68.35°E
Report Text: UACK 291130Z 22003MPS CAVOK M12/M20 Q1030 R20/450351 NOSIG RMKQFE749/0998
Loading
Personal Weather Stations






























Interactive Weather Map New forecast layout! Learn more

10-Day Weather Forecast

Advertisements
Track Severe Weather on mobile